Pagina principale
METAR-TAF:

METAR-TAF

Aeroporti :

Taunton Municipal Airport (King Field)

Taunton, Massachusetts, Stati Uniti

latitudine: 41-52-32N, longitudine: 071-01-16W, altezza: 13 m

Osservazione

Il bollettino è stato emesso 52 minuti fa, alle 06:52 UTC
Vento calmo
Temperature 13°C
Umidità 94%
Pressione 1016 hPa
Visibilità: 16.1 km
Nubi sparse ad un'altezza di 7000 ft

METAR: KTAN 240652Z AUTO 00000KT 10SM SCT070 13/12 A2999 RMK AO2 SLP154 T01280122

Ora: 03:44 (07:44 UTC)


TAF: mancante

Osservazioni e previsioni meteorologiche di più di 4000 aeroporti (messaggi METAR e TAF).

Le stazioni disponibili sono rappresentate dai dischi gialli e rossi sulla carta.

Puntare il mouse per vedere il nome della stazione.

Clicca sopra per visualizzare le osservazioni e previsioni meteorologiche.

Per cambiare la mappa : fare clic sui pulsanti verdi con una croce nera per ingrandire, il pulsante verde con un trattino per diminuire, o sulla freccia verde per le mappe adiacenti.


METAR-TAF: